sensor_id;sensor_type;location;lat;lon;timestamp;P1;durP1;ratioP1;P2;durP2;ratioP2
54263;SDS011;40178;53.042;6.406;2023-02-03T00:02:17;7.65;;;1.55;;
54263;SDS011;40178;53.042;6.406;2023-02-03T00:04:43;8.95;;;1.13;;
54263;SDS011;40178;53.042;6.406;2023-02-03T00:07:09;3.20;;;0.98;;
54263;SDS011;40178;53.042;6.406;2023-02-03T00:09:36;3.67;;;0.93;;
54263;SDS011;40178;53.042;6.406;2023-02-03T00:12:02;7.10;;;1.00;;
54263;SDS011;40178;53.042;6.406;2023-02-03T00:14:28;5.28;;;1.08;;
54263;SDS011;40178;53.042;6.406;2023-02-03T00:16:53;3.33;;;0.77;;
54263;SDS011;40178;53.042;6.406;2023-02-03T00:19:19;5.07;;;0.93;;
54263;SDS011;40178;53.042;6.406;2023-02-03T00:21:45;7.10;;;1.17;;
54263;SDS011;40178;53.042;6.406;2023-02-03T00:24:10;5.10;;;1.10;;
54263;SDS011;40178;53.042;6.406;2023-02-03T00:26:39;5.03;;;1.00;;
54263;SDS011;40178;53.042;6.406;2023-02-03T00:29:08;5.53;;;1.10;;
54263;SDS011;40178;53.042;6.406;2023-02-03T00:31:33;9.15;;;1.23;;
54263;SDS011;40178;53.042;6.406;2023-02-03T00:33:59;5.30;;;1.15;;
54263;SDS011;40178;53.042;6.406;2023-02-03T00:36:25;4.82;;;0.93;;
54263;SDS011;40178;53.042;6.406;2023-02-03T00:38:51;4.57;;;1.02;;
54263;SDS011;40178;53.042;6.406;2023-02-03T00:41:17;5.90;;;1.08;;
54263;SDS011;40178;53.042;6.406;2023-02-03T00:43:44;5.65;;;0.98;;
54263;SDS011;40178;53.042;6.406;2023-02-03T00:46:09;4.97;;;0.93;;
54263;SDS011;40178;53.042;6.406;2023-02-03T00:48:35;5.28;;;1.00;;
54263;SDS011;40178;53.042;6.406;2023-02-03T00:51:00;6.05;;;1.20;;
54263;SDS011;40178;53.042;6.406;2023-02-03T00:53:26;6.38;;;1.00;;
54263;SDS011;40178;53.042;6.406;2023-02-03T00:55:52;9.40;;;1.30;;
54263;SDS011;40178;53.042;6.406;2023-02-03T00:58:17;6.55;;;1.58;;
54263;SDS011;40178;53.042;6.406;2023-02-03T01:00:43;4.47;;;1.10;;
54263;SDS011;40178;53.042;6.406;2023-02-03T01:03:08;3.22;;;0.80;;
54263;SDS011;40178;53.042;6.406;2023-02-03T01:05:34;4.93;;;1.00;;
54263;SDS011;40178;53.042;6.406;2023-02-03T01:08:00;5.35;;;1.20;;
54263;SDS011;40178;53.042;6.406;2023-02-03T01:10:26;6.93;;;1.35;;
54263;SDS011;40178;53.042;6.406;2023-02-03T01:12:52;7.25;;;1.13;;
54263;SDS011;40178;53.042;6.406;2023-02-03T01:15:18;5.07;;;1.30;;
54263;SDS011;40178;53.042;6.406;2023-02-03T01:17:44;8.88;;;1.30;;
54263;SDS011;40178;53.042;6.406;2023-02-03T01:20:10;4.50;;;1.50;;
54263;SDS011;40178;53.042;6.406;2023-02-03T01:22:40;4.78;;;1.05;;
54263;SDS011;40178;53.042;6.406;2023-02-03T01:25:06;7.95;;;1.52;;
54263;SDS011;40178;53.042;6.406;2023-02-03T01:27:32;19.58;;;1.40;;
54263;SDS011;40178;53.042;6.406;2023-02-03T01:29:58;6.00;;;1.17;;
54263;SDS011;40178;53.042;6.406;2023-02-03T01:32:23;9.35;;;1.50;;
54263;SDS011;40178;53.042;6.406;2023-02-03T01:34:49;5.57;;;1.30;;
54263;SDS011;40178;53.042;6.406;2023-02-03T01:37:14;6.65;;;1.15;;
54263;SDS011;40178;53.042;6.406;2023-02-03T01:39:42;8.75;;;1.90;;
54263;SDS011;40178;53.042;6.406;2023-02-03T01:42:11;7.25;;;1.58;;
54263;SDS011;40178;53.042;6.406;2023-02-03T01:44:44;8.48;;;1.25;;
54263;SDS011;40178;53.042;6.406;2023-02-03T01:47:19;6.03;;;1.23;;
54263;SDS011;40178;53.042;6.406;2023-02-03T01:52:30;7.15;;;1.45;;
54263;SDS011;40178;53.042;6.406;2023-02-03T01:54:57;8.25;;;1.23;;
54263;SDS011;40178;53.042;6.406;2023-02-03T01:57:31;6.03;;;1.55;;
54263;SDS011;40178;53.042;6.406;2023-02-03T01:59:59;5.32;;;1.42;;
54263;SDS011;40178;53.042;6.406;2023-02-03T02:02:29;6.85;;;1.35;;
54263;SDS011;40178;53.042;6.406;2023-02-03T02:05:02;7.57;;;2.03;;
54263;SDS011;40178;53.042;6.406;2023-02-03T02:07:33;8.38;;;2.05;;
54263;SDS011;40178;53.042;6.406;2023-02-03T02:10:01;5.28;;;1.40;;
54263;SDS011;40178;53.042;6.406;2023-02-03T02:12:28;9.73;;;1.67;;
54263;SDS011;40178;53.042;6.406;2023-02-03T02:14:53;5.00;;;1.20;;
54263;SDS011;40178;53.042;6.406;2023-02-03T02:25:47;6.55;;;1.38;;
54263;SDS011;40178;53.042;6.406;2023-02-03T02:31:32;5.82;;;1.17;;
54263;SDS011;40178;53.042;6.406;2023-02-03T02:34:38;9.38;;;1.25;;
54263;SDS011;40178;53.042;6.406;2023-02-03T02:37:30;6.03;;;1.20;;
54263;SDS011;40178;53.042;6.406;2023-02-03T02:43:22;6.18;;;1.33;;
54263;SDS011;40178;53.042;6.406;2023-02-03T02:45:55;7.40;;;1.23;;
54263;SDS011;40178;53.042;6.406;2023-02-03T02:48:31;5.00;;;1.00;;
54263;SDS011;40178;53.042;6.406;2023-02-03T02:51:07;8.30;;;1.60;;
54263;SDS011;40178;53.042;6.406;2023-02-03T02:53:37;6.47;;;1.33;;
54263;SDS011;40178;53.042;6.406;2023-02-03T02:56:06;4.85;;;1.20;;
54263;SDS011;40178;53.042;6.406;2023-02-03T02:58:34;9.20;;;2.28;;
54263;SDS011;40178;53.042;6.406;2023-02-03T03:01:02;9.98;;;1.65;;
54263;SDS011;40178;53.042;6.406;2023-02-03T03:03:28;7.47;;;1.30;;
54263;SDS011;40178;53.042;6.406;2023-02-03T03:05:55;7.10;;;1.13;;
54263;SDS011;40178;53.042;6.406;2023-02-03T03:08:29;9.77;;;2.35;;
54263;SDS011;40178;53.042;6.406;2023-02-03T03:11:05;5.22;;;1.13;;
54263;SDS011;40178;53.042;6.406;2023-02-03T03:13:32;6.82;;;1.60;;
54263;SDS011;40178;53.042;6.406;2023-02-03T03:16:06;7.55;;;2.40;;
54263;SDS011;40178;53.042;6.406;2023-02-03T03:18:36;6.68;;;1.33;;
54263;SDS011;40178;53.042;6.406;2023-02-03T03:21:07;7.95;;;1.48;;
54263;SDS011;40178;53.042;6.406;2023-02-03T03:23:38;8.50;;;1.40;;
54263;SDS011;40178;53.042;6.406;2023-02-03T03:28:48;6.88;;;1.38;;
54263;SDS011;40178;53.042;6.406;2023-02-03T03:31:18;9.70;;;1.92;;
54263;SDS011;40178;53.042;6.406;2023-02-03T03:33:44;10.20;;;1.63;;
54263;SDS011;40178;53.042;6.406;2023-02-03T03:38:56;7.68;;;1.30;;
54263;SDS011;40178;53.042;6.406;2023-02-03T03:44:24;5.15;;;1.38;;
54263;SDS011;40178;53.042;6.406;2023-02-03T03:50:17;7.07;;;1.40;;
54263;SDS011;40178;53.042;6.406;2023-02-03T03:52:46;6.13;;;1.20;;
54263;SDS011;40178;53.042;6.406;2023-02-03T03:55:13;8.38;;;1.10;;
54263;SDS011;40178;53.042;6.406;2023-02-03T04:00:12;7.88;;;1.52;;
54263;SDS011;40178;53.042;6.406;2023-02-03T04:02:41;7.88;;;1.00;;
54263;SDS011;40178;53.042;6.406;2023-02-03T04:05:10;6.93;;;1.10;;
54263;SDS011;40178;53.042;6.406;2023-02-03T04:07:40;6.97;;;1.27;;
54263;SDS011;40178;53.042;6.406;2023-02-03T04:10:13;9.15;;;1.25;;
54263;SDS011;40178;53.042;6.406;2023-02-03T04:12:49;7.80;;;1.10;;
54263;SDS011;40178;53.042;6.406;2023-02-03T04:15:15;6.53;;;1.13;;
54263;SDS011;40178;53.042;6.406;2023-02-03T04:17:41;5.13;;;1.00;;
54263;SDS011;40178;53.042;6.406;2023-02-03T04:20:06;3.80;;;0.98;;
54263;SDS011;40178;53.042;6.406;2023-02-03T04:22:32;6.57;;;1.35;;
54263;SDS011;40178;53.042;6.406;2023-02-03T04:24:58;6.43;;;1.38;;
54263;SDS011;40178;53.042;6.406;2023-02-03T04:27:24;7.82;;;1.27;;
54263;SDS011;40178;53.042;6.406;2023-02-03T04:29:50;5.63;;;1.05;;
54263;SDS011;40178;53.042;6.406;2023-02-03T04:32:16;10.88;;;1.55;;
54263;SDS011;40178;53.042;6.406;2023-02-03T04:34:42;11.30;;;2.72;;
54263;SDS011;40178;53.042;6.406;2023-02-03T04:37:07;6.38;;;1.23;;
54263;SDS011;40178;53.042;6.406;2023-02-03T04:39:33;6.50;;;1.08;;
54263;SDS011;40178;53.042;6.406;2023-02-03T04:41:58;5.50;;;1.20;;
54263;SDS011;40178;53.042;6.406;2023-02-03T04:44:24;5.82;;;1.42;;
54263;SDS011;40178;53.042;6.406;2023-02-03T04:46:49;8.20;;;1.45;;
54263;SDS011;40178;53.042;6.406;2023-02-03T04:49:15;7.80;;;1.38;;
54263;SDS011;40178;53.042;6.406;2023-02-03T04:51:41;6.82;;;1.35;;
54263;SDS011;40178;53.042;6.406;2023-02-03T04:54:08;8.90;;;1.13;;
54263;SDS011;40178;53.042;6.406;2023-02-03T04:56:35;8.35;;;1.63;;
54263;SDS011;40178;53.042;6.406;2023-02-03T04:59:01;5.63;;;1.20;;
54263;SDS011;40178;53.042;6.406;2023-02-03T05:01:27;7.80;;;1.42;;
54263;SDS011;40178;53.042;6.406;2023-02-03T05:03:53;9.90;;;1.77;;
54263;SDS011;40178;53.042;6.406;2023-02-03T05:06:22;7.65;;;1.13;;
54263;SDS011;40178;53.042;6.406;2023-02-03T05:08:50;10.30;;;1.52;;
54263;SDS011;40178;53.042;6.406;2023-02-03T05:11:16;6.80;;;1.20;;
54263;SDS011;40178;53.042;6.406;2023-02-03T05:13:41;7.97;;;1.88;;
54263;SDS011;40178;53.042;6.406;2023-02-03T05:16:07;8.40;;;1.90;;
54263;SDS011;40178;53.042;6.406;2023-02-03T05:18:33;7.50;;;1.70;;
54263;SDS011;40178;53.042;6.406;2023-02-03T05:20:58;6.32;;;1.38;;
54263;SDS011;40178;53.042;6.406;2023-02-03T05:23:24;11.23;;;2.28;;
54263;SDS011;40178;53.042;6.406;2023-02-03T05:25:49;6.82;;;1.38;;
54263;SDS011;40178;53.042;6.406;2023-02-03T05:28:15;7.50;;;1.92;;
54263;SDS011;40178;53.042;6.406;2023-02-03T05:30:40;6.80;;;1.20;;
54263;SDS011;40178;53.042;6.406;2023-02-03T05:33:06;8.48;;;1.85;;
54263;SDS011;40178;53.042;6.406;2023-02-03T05:35:32;4.78;;;1.17;;
54263;SDS011;40178;53.042;6.406;2023-02-03T05:37:57;9.30;;;1.60;;
54263;SDS011;40178;53.042;6.406;2023-02-03T05:40:23;11.70;;;1.27;;
54263;SDS011;40178;53.042;6.406;2023-02-03T05:43:08;6.03;;;1.60;;
54263;SDS011;40178;53.042;6.406;2023-02-03T05:45:34;6.78;;;1.10;;
54263;SDS011;40178;53.042;6.406;2023-02-03T05:47:59;10.63;;;1.23;;
54263;SDS011;40178;53.042;6.406;2023-02-03T05:50:27;10.02;;;2.17;;
54263;SDS011;40178;53.042;6.406;2023-02-03T05:52:57;7.30;;;1.60;;
54263;SDS011;40178;53.042;6.406;2023-02-03T05:55:27;14.48;;;2.25;;
54263;SDS011;40178;53.042;6.406;2023-02-03T05:57:54;8.77;;;1.92;;
54263;SDS011;40178;53.042;6.406;2023-02-03T06:00:20;13.02;;;1.73;;
54263;SDS011;40178;53.042;6.406;2023-02-03T06:02:53;10.95;;;2.03;;
54263;SDS011;40178;53.042;6.406;2023-02-03T06:05:20;9.95;;;1.55;;
54263;SDS011;40178;53.042;6.406;2023-02-03T06:07:46;8.73;;;1.90;;
54263;SDS011;40178;53.042;6.406;2023-02-03T06:10:12;8.95;;;2.03;;
54263;SDS011;40178;53.042;6.406;2023-02-03T06:12:38;9.65;;;1.63;;
54263;SDS011;40178;53.042;6.406;2023-02-03T06:15:04;7.20;;;1.77;;
54263;SDS011;40178;53.042;6.406;2023-02-03T06:17:30;11.55;;;2.17;;
54263;SDS011;40178;53.042;6.406;2023-02-03T06:19:56;7.03;;;2.00;;
54263;SDS011;40178;53.042;6.406;2023-02-03T06:22:21;9.13;;;1.70;;
54263;SDS011;40178;53.042;6.406;2023-02-03T06:24:47;10.20;;;2.00;;
54263;SDS011;40178;53.042;6.406;2023-02-03T06:27:13;9.95;;;2.00;;
54263;SDS011;40178;53.042;6.406;2023-02-03T06:29:40;13.10;;;2.50;;
54263;SDS011;40178;53.042;6.406;2023-02-03T06:32:06;13.40;;;1.98;;
54263;SDS011;40178;53.042;6.406;2023-02-03T06:34:32;8.15;;;1.70;;
54263;SDS011;40178;53.042;6.406;2023-02-03T06:36:57;9.45;;;2.33;;
54263;SDS011;40178;53.042;6.406;2023-02-03T06:39:23;10.68;;;2.40;;
54263;SDS011;40178;53.042;6.406;2023-02-03T06:41:49;9.63;;;1.90;;
54263;SDS011;40178;53.042;6.406;2023-02-03T06:44:16;12.60;;;2.40;;
54263;SDS011;40178;53.042;6.406;2023-02-03T06:46:42;10.77;;;2.15;;
54263;SDS011;40178;53.042;6.406;2023-02-03T06:49:07;7.90;;;1.42;;
54263;SDS011;40178;53.042;6.406;2023-02-03T06:51:33;10.23;;;2.55;;
54263;SDS011;40178;53.042;6.406;2023-02-03T06:53:59;8.32;;;1.60;;
54263;SDS011;40178;53.042;6.406;2023-02-03T06:56:24;7.15;;;2.00;;
54263;SDS011;40178;53.042;6.406;2023-02-03T06:58:50;9.00;;;2.00;;
54263;SDS011;40178;53.042;6.406;2023-02-03T07:01:16;10.73;;;2.15;;
54263;SDS011;40178;53.042;6.406;2023-02-03T07:03:41;9.20;;;2.13;;
54263;SDS011;40178;53.042;6.406;2023-02-03T07:06:07;8.05;;;1.90;;
54263;SDS011;40178;53.042;6.406;2023-02-03T07:08:33;8.07;;;1.80;;
54263;SDS011;40178;53.042;6.406;2023-02-03T07:10:58;10.15;;;2.55;;
54263;SDS011;40178;53.042;6.406;2023-02-03T07:13:24;11.65;;;2.30;;
54263;SDS011;40178;53.042;6.406;2023-02-03T07:15:49;11.02;;;2.30;;
54263;SDS011;40178;53.042;6.406;2023-02-03T07:18:15;9.07;;;2.30;;
54263;SDS011;40178;53.042;6.406;2023-02-03T07:20:43;9.45;;;2.55;;
54263;SDS011;40178;53.042;6.406;2023-02-03T07:23:08;9.63;;;1.95;;
54263;SDS011;40178;53.042;6.406;2023-02-03T07:25:34;10.73;;;3.47;;
54263;SDS011;40178;53.042;6.406;2023-02-03T07:27:59;11.73;;;2.72;;
54263;SDS011;40178;53.042;6.406;2023-02-03T07:30:25;9.43;;;2.53;;
54263;SDS011;40178;53.042;6.406;2023-02-03T07:32:51;10.07;;;2.05;;
54263;SDS011;40178;53.042;6.406;2023-02-03T07:35:17;9.77;;;2.25;;
54263;SDS011;40178;53.042;6.406;2023-02-03T07:37:43;9.85;;;2.22;;
54263;SDS011;40178;53.042;6.406;2023-02-03T07:40:10;12.55;;;2.80;;
54263;SDS011;40178;53.042;6.406;2023-02-03T07:42:43;10.93;;;2.25;;
54263;SDS011;40178;53.042;6.406;2023-02-03T07:45:10;13.90;;;3.00;;
54263;SDS011;40178;53.042;6.406;2023-02-03T07:47:36;10.65;;;3.17;;
54263;SDS011;40178;53.042;6.406;2023-02-03T07:50:02;10.23;;;2.75;;
54263;SDS011;40178;53.042;6.406;2023-02-03T07:52:28;11.52;;;1.75;;
54263;SDS011;40178;53.042;6.406;2023-02-03T07:54:53;11.05;;;2.67;;
54263;SDS011;40178;53.042;6.406;2023-02-03T07:57:19;9.68;;;2.42;;
54263;SDS011;40178;53.042;6.406;2023-02-03T07:59:45;11.85;;;2.80;;
54263;SDS011;40178;53.042;6.406;2023-02-03T08:02:10;9.68;;;3.25;;
54263;SDS011;40178;53.042;6.406;2023-02-03T08:04:36;13.32;;;2.42;;
54263;SDS011;40178;53.042;6.406;2023-02-03T08:07:02;8.57;;;2.10;;
54263;SDS011;40178;53.042;6.406;2023-02-03T08:09:28;9.60;;;2.55;;
54263;SDS011;40178;53.042;6.406;2023-02-03T08:11:53;8.30;;;2.42;;
54263;SDS011;40178;53.042;6.406;2023-02-03T08:14:19;14.70;;;2.38;;
54263;SDS011;40178;53.042;6.406;2023-02-03T08:16:45;11.90;;;2.30;;
54263;SDS011;40178;53.042;6.406;2023-02-03T08:19:11;11.07;;;2.97;;
54263;SDS011;40178;53.042;6.406;2023-02-03T08:21:37;10.90;;;2.92;;
54263;SDS011;40178;53.042;6.406;2023-02-03T08:24:02;8.45;;;2.17;;
54263;SDS011;40178;53.042;6.406;2023-02-03T08:26:29;11.10;;;2.80;;
54263;SDS011;40178;53.042;6.406;2023-02-03T08:28:54;13.88;;;2.92;;
54263;SDS011;40178;53.042;6.406;2023-02-03T08:31:20;15.25;;;3.85;;
54263;SDS011;40178;53.042;6.406;2023-02-03T08:33:46;10.45;;;3.20;;
54263;SDS011;40178;53.042;6.406;2023-02-03T08:36:11;9.48;;;3.17;;
54263;SDS011;40178;53.042;6.406;2023-02-03T08:38:37;10.20;;;2.97;;
54263;SDS011;40178;53.042;6.406;2023-02-03T08:41:07;19.13;;;3.50;;
54263;SDS011;40178;53.042;6.406;2023-02-03T08:43:37;14.55;;;3.35;;
54263;SDS011;40178;53.042;6.406;2023-02-03T08:46:04;15.43;;;3.00;;
54263;SDS011;40178;53.042;6.406;2023-02-03T08:48:30;15.55;;;4.35;;
54263;SDS011;40178;53.042;6.406;2023-02-03T08:50:57;22.60;;;4.00;;
54263;SDS011;40178;53.042;6.406;2023-02-03T08:53:22;11.77;;;2.67;;
54263;SDS011;40178;53.042;6.406;2023-02-03T08:55:48;10.82;;;3.50;;
54263;SDS011;40178;53.042;6.406;2023-02-03T08:58:14;20.92;;;4.93;;
54263;SDS011;40178;53.042;6.406;2023-02-03T09:00:40;14.60;;;3.22;;
54263;SDS011;40178;53.042;6.406;2023-02-03T09:03:05;14.65;;;3.30;;
54263;SDS011;40178;53.042;6.406;2023-02-03T09:05:31;14.10;;;3.30;;
54263;SDS011;40178;53.042;6.406;2023-02-03T09:07:57;18.73;;;4.13;;
54263;SDS011;40178;53.042;6.406;2023-02-03T09:10:23;14.05;;;2.92;;
54263;SDS011;40178;53.042;6.406;2023-02-03T09:12:49;20.75;;;3.80;;
54263;SDS011;40178;53.042;6.406;2023-02-03T09:15:14;17.02;;;3.80;;
54263;SDS011;40178;53.042;6.406;2023-02-03T09:17:40;15.45;;;3.38;;
54263;SDS011;40178;53.042;6.406;2023-02-03T09:20:06;19.13;;;4.47;;
54263;SDS011;40178;53.042;6.406;2023-02-03T09:22:33;13.07;;;4.03;;
54263;SDS011;40178;53.042;6.406;2023-02-03T09:24:58;13.48;;;3.22;;
54263;SDS011;40178;53.042;6.406;2023-02-03T09:27:24;25.33;;;4.75;;
54263;SDS011;40178;53.042;6.406;2023-02-03T09:29:49;18.77;;;4.03;;
54263;SDS011;40178;53.042;6.406;2023-02-03T09:32:15;19.95;;;4.57;;
54263;SDS011;40178;53.042;6.406;2023-02-03T09:34:40;14.18;;;3.38;;
54263;SDS011;40178;53.042;6.406;2023-02-03T09:37:06;20.50;;;3.97;;
54263;SDS011;40178;53.042;6.406;2023-02-03T09:39:32;15.65;;;3.47;;
54263;SDS011;40178;53.042;6.406;2023-02-03T09:47:27;12.27;;;3.65;;
54263;SDS011;40178;53.042;6.406;2023-02-03T09:49:57;14.38;;;4.50;;
54263;SDS011;40178;53.042;6.406;2023-02-03T09:52:33;14.68;;;3.58;;
54263;SDS011;40178;53.042;6.406;2023-02-03T09:55:05;20.00;;;3.22;;
54263;SDS011;40178;53.042;6.406;2023-02-03T09:58:01;16.77;;;3.92;;
54263;SDS011;40178;53.042;6.406;2023-02-03T10:00:40;15.10;;;3.15;;
54263;SDS011;40178;53.042;6.406;2023-02-03T10:06:12;20.80;;;3.60;;
54263;SDS011;40178;53.042;6.406;2023-02-03T10:14:34;16.45;;;3.67;;
54263;SDS011;40178;53.042;6.406;2023-02-03T10:22:30;20.77;;;3.65;;
54263;SDS011;40178;53.042;6.406;2023-02-03T10:25:11;20.02;;;3.88;;
54263;SDS011;40178;53.042;6.406;2023-02-03T10:27:44;12.80;;;3.10;;
54263;SDS011;40178;53.042;6.406;2023-02-03T10:30:20;13.13;;;3.58;;
54263;SDS011;40178;53.042;6.406;2023-02-03T10:32:54;20.30;;;3.30;;
54263;SDS011;40178;53.042;6.406;2023-02-03T10:35:26;13.02;;;2.47;;
54263;SDS011;40178;53.042;6.406;2023-02-03T10:38:00;18.75;;;3.30;;
54263;SDS011;40178;53.042;6.406;2023-02-03T10:40:26;13.65;;;2.40;;
54263;SDS011;40178;53.042;6.406;2023-02-03T10:42:53;10.90;;;2.42;;
54263;SDS011;40178;53.042;6.406;2023-02-03T10:45:38;14.25;;;3.20;;
54263;SDS011;40178;53.042;6.406;2023-02-03T10:48:05;17.65;;;3.08;;
54263;SDS011;40178;53.042;6.406;2023-02-03T10:50:35;9.43;;;2.72;;
54263;SDS011;40178;53.042;6.406;2023-02-03T10:55:51;15.10;;;2.72;;
54263;SDS011;40178;53.042;6.406;2023-02-03T10:58:34;15.20;;;2.45;;
54263;SDS011;40178;53.042;6.406;2023-02-03T11:01:08;19.90;;;3.20;;
54263;SDS011;40178;53.042;6.406;2023-02-03T11:03:35;15.25;;;2.55;;
54263;SDS011;40178;53.042;6.406;2023-02-03T11:06:09;16.13;;;3.22;;
54263;SDS011;40178;53.042;6.406;2023-02-03T11:08:41;17.50;;;3.08;;
54263;SDS011;40178;53.042;6.406;2023-02-03T11:11:12;20.98;;;3.20;;
54263;SDS011;40178;53.042;6.406;2023-02-03T11:13:55;19.58;;;3.47;;
54263;SDS011;40178;53.042;6.406;2023-02-03T11:16:28;12.45;;;2.83;;
54263;SDS011;40178;53.042;6.406;2023-02-03T11:18:56;17.88;;;2.50;;
54263;SDS011;40178;53.042;6.406;2023-02-03T11:21:25;17.13;;;2.83;;
54263;SDS011;40178;53.042;6.406;2023-02-03T11:26:42;12.40;;;2.60;;
54263;SDS011;40178;53.042;6.406;2023-02-03T11:29:31;14.45;;;2.85;;
54263;SDS011;40178;53.042;6.406;2023-02-03T11:32:14;17.30;;;3.35;;
54263;SDS011;40178;53.042;6.406;2023-02-03T11:34:50;17.42;;;2.90;;
54263;SDS011;40178;53.042;6.406;2023-02-03T11:37:28;16.55;;;2.92;;
54263;SDS011;40178;53.042;6.406;2023-02-03T11:42:39;16.90;;;3.35;;
54263;SDS011;40178;53.042;6.406;2023-02-03T11:45:52;17.47;;;3.63;;
54263;SDS011;40178;53.042;6.406;2023-02-03T11:50:35;15.98;;;2.88;;
54263;SDS011;40178;53.042;6.406;2023-02-03T11:58:40;16.85;;;4.40;;
54263;SDS011;40178;53.042;6.406;2023-02-03T12:09:51;16.30;;;3.10;;
54263;SDS011;40178;53.042;6.406;2023-02-03T12:31:30;19.80;;;4.03;;
54263;SDS011;40178;53.042;6.406;2023-02-03T12:34:36;16.23;;;3.50;;
54263;SDS011;40178;53.042;6.406;2023-02-03T12:37:16;22.55;;;4.75;;
54263;SDS011;40178;53.042;6.406;2023-02-03T12:39:59;24.80;;;3.72;;
54263;SDS011;40178;53.042;6.406;2023-02-03T12:42:38;17.00;;;3.92;;
54263;SDS011;40178;53.042;6.406;2023-02-03T12:45:12;18.35;;;3.63;;
54263;SDS011;40178;53.042;6.406;2023-02-03T12:47:42;15.82;;;3.60;;
54263;SDS011;40178;53.042;6.406;2023-02-03T12:50:13;15.18;;;3.33;;
54263;SDS011;40178;53.042;6.406;2023-02-03T12:52:48;17.52;;;3.03;;
54263;SDS011;40178;53.042;6.406;2023-02-03T12:58:19;15.00;;;3.55;;
54263;SDS011;40178;53.042;6.406;2023-02-03T13:11:53;17.90;;;2.83;;
54263;SDS011;40178;53.042;6.406;2023-02-03T13:14:27;17.75;;;3.70;;
54263;SDS011;40178;53.042;6.406;2023-02-03T13:17:33;14.95;;;3.13;;
54263;SDS011;40178;53.042;6.406;2023-02-03T13:20:18;18.58;;;3.28;;
54263;SDS011;40178;53.042;6.406;2023-02-03T13:22:46;20.98;;;4.00;;
54263;SDS011;40178;53.042;6.406;2023-02-03T13:30:58;20.60;;;4.63;;
54263;SDS011;40178;53.042;6.406;2023-02-03T13:33:39;20.35;;;3.92;;
54263;SDS011;40178;53.042;6.406;2023-02-03T13:42:16;19.55;;;3.97;;
54263;SDS011;40178;53.042;6.406;2023-02-03T13:44:43;18.67;;;3.33;;
54263;SDS011;40178;53.042;6.406;2023-02-03T13:47:15;17.30;;;3.20;;
54263;SDS011;40178;53.042;6.406;2023-02-03T13:49:44;14.55;;;3.65;;
54263;SDS011;40178;53.042;6.406;2023-02-03T13:55:02;17.00;;;3.20;;
54263;SDS011;40178;53.042;6.406;2023-02-03T13:57:36;15.55;;;2.80;;
54263;SDS011;40178;53.042;6.406;2023-02-03T14:00:10;16.77;;;3.05;;
54263;SDS011;40178;53.042;6.406;2023-02-03T14:03:16;22.08;;;2.90;;
54263;SDS011;40178;53.042;6.406;2023-02-03T14:05:47;14.97;;;3.50;;
54263;SDS011;40178;53.042;6.406;2023-02-03T14:14:39;13.32;;;3.70;;
54263;SDS011;40178;53.042;6.406;2023-02-03T14:16:47;14.35;;;2.92;;
54263;SDS011;40178;53.042;6.406;2023-02-03T14:21:53;17.33;;;3.35;;
54263;SDS011;40178;53.042;6.406;2023-02-03T14:24:22;19.70;;;3.08;;
54263;SDS011;40178;53.042;6.406;2023-02-03T14:26:55;12.23;;;2.83;;
54263;SDS011;40178;53.042;6.406;2023-02-03T14:29:33;11.57;;;2.03;;
54263;SDS011;40178;53.042;6.406;2023-02-03T14:32:03;11.63;;;2.78;;
54263;SDS011;40178;53.042;6.406;2023-02-03T14:34:31;13.07;;;2.72;;
54263;SDS011;40178;53.042;6.406;2023-02-03T14:40:06;11.73;;;2.92;;
54263;SDS011;40178;53.042;6.406;2023-02-03T14:43:10;16.67;;;3.50;;
54263;SDS011;40178;53.042;6.406;2023-02-03T14:51:15;16.60;;;2.67;;
54263;SDS011;40178;53.042;6.406;2023-02-03T15:02:30;15.75;;;2.40;;
54263;SDS011;40178;53.042;6.406;2023-02-03T15:05:33;13.70;;;2.38;;
54263;SDS011;40178;53.042;6.406;2023-02-03T15:07:55;12.85;;;2.65;;
54263;SDS011;40178;53.042;6.406;2023-02-03T15:10:22;14.45;;;2.45;;
54263;SDS011;40178;53.042;6.406;2023-02-03T15:13:02;13.18;;;2.20;;
54263;SDS011;40178;53.042;6.406;2023-02-03T15:15:29;17.98;;;2.58;;
54263;SDS011;40178;53.042;6.406;2023-02-03T15:17:57;13.90;;;3.08;;
54263;SDS011;40178;53.042;6.406;2023-02-03T15:20:46;15.73;;;3.28;;
54263;SDS011;40178;53.042;6.406;2023-02-03T15:23:23;16.88;;;2.38;;
54263;SDS011;40178;53.042;6.406;2023-02-03T15:28:24;16.23;;;1.90;;
54263;SDS011;40178;53.042;6.406;2023-02-03T15:31:15;14.73;;;2.28;;
54263;SDS011;40178;53.042;6.406;2023-02-03T15:33:44;13.60;;;2.30;;
54263;SDS011;40178;53.042;6.406;2023-02-03T15:36:21;9.35;;;1.95;;
54263;SDS011;40178;53.042;6.406;2023-02-03T15:38:54;12.30;;;1.83;;
54263;SDS011;40178;53.042;6.406;2023-02-03T15:41:26;11.55;;;2.00;;
54263;SDS011;40178;53.042;6.406;2023-02-03T15:43:53;11.10;;;1.88;;
54263;SDS011;40178;53.042;6.406;2023-02-03T15:46:27;11.77;;;2.47;;
54263;SDS011;40178;53.042;6.406;2023-02-03T15:49:01;19.70;;;2.47;;
54263;SDS011;40178;53.042;6.406;2023-02-03T15:51:42;12.18;;;2.67;;
54263;SDS011;40178;53.042;6.406;2023-02-03T15:54:20;13.90;;;3.10;;
54263;SDS011;40178;53.042;6.406;2023-02-03T15:56:56;16.52;;;2.67;;
54263;SDS011;40178;53.042;6.406;2023-02-03T16:01:50;17.42;;;2.65;;
54263;SDS011;40178;53.042;6.406;2023-02-03T16:04:17;17.10;;;2.72;;
54263;SDS011;40178;53.042;6.406;2023-02-03T16:06:45;16.65;;;2.42;;
54263;SDS011;40178;53.042;6.406;2023-02-03T16:09:26;17.08;;;2.95;;
54263;SDS011;40178;53.042;6.406;2023-02-03T16:14:39;16.98;;;3.10;;
54263;SDS011;40178;53.042;6.406;2023-02-03T16:17:05;19.65;;;3.78;;
54263;SDS011;40178;53.042;6.406;2023-02-03T16:19:40;21.17;;;4.25;;
54263;SDS011;40178;53.042;6.406;2023-02-03T16:22:26;18.80;;;4.30;;
54263;SDS011;40178;53.042;6.406;2023-02-03T16:30:52;25.95;;;5.25;;
54263;SDS011;40178;53.042;6.406;2023-02-03T16:33:42;20.60;;;4.25;;
54263;SDS011;40178;53.042;6.406;2023-02-03T16:36:27;18.58;;;4.28;;
54263;SDS011;40178;53.042;6.406;2023-02-03T16:39:11;21.48;;;3.83;;
54263;SDS011;40178;53.042;6.406;2023-02-03T16:41:59;18.33;;;3.85;;
54263;SDS011;40178;53.042;6.406;2023-02-03T16:44:49;21.05;;;3.90;;
54263;SDS011;40178;53.042;6.406;2023-02-03T16:47:33;27.67;;;4.45;;
54263;SDS011;40178;53.042;6.406;2023-02-03T16:50:21;19.30;;;3.88;;
54263;SDS011;40178;53.042;6.406;2023-02-03T16:53:13;19.85;;;4.15;;
54263;SDS011;40178;53.042;6.406;2023-02-03T16:55:41;18.63;;;3.20;;
54263;SDS011;40178;53.042;6.406;2023-02-03T16:58:07;17.77;;;4.28;;
54263;SDS011;40178;53.042;6.406;2023-02-03T17:00:35;20.55;;;3.38;;
54263;SDS011;40178;53.042;6.406;2023-02-03T17:03:04;18.10;;;3.53;;
54263;SDS011;40178;53.042;6.406;2023-02-03T17:05:29;12.15;;;3.10;;
54263;SDS011;40178;53.042;6.406;2023-02-03T17:07:55;14.65;;;3.17;;
54263;SDS011;40178;53.042;6.406;2023-02-03T17:10:20;18.83;;;3.50;;
54263;SDS011;40178;53.042;6.406;2023-02-03T17:12:46;20.50;;;3.20;;
54263;SDS011;40178;53.042;6.406;2023-02-03T17:15:12;18.92;;;3.55;;
54263;SDS011;40178;53.042;6.406;2023-02-03T17:17:38;18.45;;;3.53;;
54263;SDS011;40178;53.042;6.406;2023-02-03T17:20:03;23.33;;;3.65;;
54263;SDS011;40178;53.042;6.406;2023-02-03T17:22:29;17.27;;;3.47;;
54263;SDS011;40178;53.042;6.406;2023-02-03T17:24:56;16.23;;;3.63;;
54263;SDS011;40178;53.042;6.406;2023-02-03T17:27:21;20.80;;;3.55;;
54263;SDS011;40178;53.042;6.406;2023-02-03T17:29:47;20.90;;;3.70;;
54263;SDS011;40178;53.042;6.406;2023-02-03T17:32:12;16.75;;;3.10;;
54263;SDS011;40178;53.042;6.406;2023-02-03T17:34:40;20.83;;;3.42;;
54263;SDS011;40178;53.042;6.406;2023-02-03T17:37:06;20.27;;;4.53;;
54263;SDS011;40178;53.042;6.406;2023-02-03T17:39:31;20.33;;;3.17;;
54263;SDS011;40178;53.042;6.406;2023-02-03T17:41:57;15.73;;;2.95;;